Аэропорт: Кокшетау. Кокшетау

ICAO: UACK

METAR:
2018/11/19 10:00
UACK 191000Z 22009MPS CAVOK M02/M04 Q1026 R20/990250 NOSIG RMK QFE745/0994
METAR:
2014/11/02 12:00
TAF UACK 021140Z 0212/0221 CNL